This is the latest recevied weather packets stored in our database for station/object KD4EED. If no packets are shown the sender has not sent any weather packets the latest 10 day(s).
| Time | Temp. | Humidity | Pressure | Rain* | Wind** | Luminosity | Snow |
|---|---|---|---|---|---|---|---|
| 1777947033 | 16.67° C | 67% | 1012 hPa | - | - | 18 W/m² | - |
| 1777946732 | 16.67° C | 67% | 1012 hPa | - | - | 23 W/m² | - |
| 1777946430 | 16.67° C | 67% | 1011.9 hPa | - | - | 26 W/m² | - |
| 1777946127 | 16.67° C | 69% | 1011.9 hPa | - | - | 30 W/m² | - |
| 1777945824 | 16.67° C | 68% | 1011.8 hPa | - | - | 34 W/m² | - |
| 1777945520 | 17.22° C | 67% | 1011.9 hPa | - | - | 38 W/m² | - |
| 1777945218 | 17.22° C | 67% | 1012 hPa | - | - | 46 W/m² | - |
| 1777944915 | 17.22° C | 67% | 1012.1 hPa | - | - | 58 W/m² | - |
| 1777944612 | 17.22° C | 66% | 1012.1 hPa | - | - | 60 W/m² | - |
| 1777944310 | 17.22° C | 64% | 1012.1 hPa | - | - | 56 W/m² | - |
| 1777944007 | 17.78° C | 63% | 1012.2 hPa | - | - | 63 W/m² | - |
| 1777943702 | 17.78° C | 64% | 1012.3 hPa | - | - | 74 W/m² | - |
| 1777943399 | 17.78° C | 64% | 1012.1 hPa | - | - | 61 W/m² | - |
| 1777943095 | 17.78° C | 65% | 1012.2 hPa | - | - | 63 W/m² | - |
| 1777942791 | 17.78° C | 63% | 1012.2 hPa | - | - | 80 W/m² | - |
| 1777942488 | 18.33° C | 63% | 1012.2 hPa | - | - | 93 W/m² | - |
| 1777942186 | 18.33° C | 62% | 1012.3 hPa | - | - | 106 W/m² | - |
| 1777941883 | 18.33° C | 62% | 1012.3 hPa | - | - | 111 W/m² | - |
| 1777941579 | 18.33° C | 62% | 1012.2 hPa | - | - | 124 W/m² | - |
| 1777941277 | 18.89° C | 61% | 1012.3 hPa | - | - | 150 W/m² | - |
| 1777940973 | 18.89° C | 62% | 1012.3 hPa | - | - | 183 W/m² | - |
| 1777940669 | 18.89° C | 61% | 1012.4 hPa | - | - | 230 W/m² | - |
| 1777940368 | 18.33° C | 63% | 1012.5 hPa | - | - | 217 W/m² | - |
| 1777940065 | 18.89° C | 63% | 1012.3 hPa | - | - | 167 W/m² | - |
| 1777939762 | 18.89° C | 62% | 1012.3 hPa | - | - | 198 W/m² | - |
* Rain since midnight (hover to see other rain measurements)
** Current wind speed in m/s (hover to see current wind gust speed)